sensor_id;sensor_type;location;lat;lon;timestamp;P1;durP1;ratioP1;P2;durP2;ratioP2
17052;SDS011;8643;48.824;11.422;2023-02-13T00:01:24;63.37;;;20.33;;
17052;SDS011;8643;48.824;11.422;2023-02-13T00:03:53;60.33;;;19.43;;
17052;SDS011;8643;48.824;11.422;2023-02-13T00:06:22;56.20;;;19.87;;
17052;SDS011;8643;48.824;11.422;2023-02-13T00:08:51;64.60;;;20.07;;
17052;SDS011;8643;48.824;11.422;2023-02-13T00:11:24;70.00;;;21.53;;
17052;SDS011;8643;48.824;11.422;2023-02-13T00:13:52;81.43;;;24.53;;
17052;SDS011;8643;48.824;11.422;2023-02-13T00:16:21;90.07;;;25.83;;
17052;SDS011;8643;48.824;11.422;2023-02-13T00:18:49;98.90;;;28.47;;
17052;SDS011;8643;48.824;11.422;2023-02-13T00:21:18;129.80;;;30.30;;
17052;SDS011;8643;48.824;11.422;2023-02-13T00:23:47;125.43;;;29.67;;
17052;SDS011;8643;48.824;11.422;2023-02-13T00:26:16;119.13;;;30.03;;
17052;SDS011;8643;48.824;11.422;2023-02-13T00:28:46;136.77;;;30.17;;
17052;SDS011;8643;48.824;11.422;2023-02-13T00:31:16;193.83;;;33.77;;
17052;SDS011;8643;48.824;11.422;2023-02-13T00:33:47;252.57;;;34.07;;
17052;SDS011;8643;48.824;11.422;2023-02-13T00:36:18;183.93;;;31.80;;
17052;SDS011;8643;48.824;11.422;2023-02-13T00:38:49;206.90;;;33.00;;
17052;SDS011;8643;48.824;11.422;2023-02-13T00:41:19;298.27;;;34.70;;
17052;SDS011;8643;48.824;11.422;2023-02-13T00:43:51;177.93;;;32.00;;
17052;SDS011;8643;48.824;11.422;2023-02-13T00:46:20;323.13;;;35.63;;
17052;SDS011;8643;48.824;11.422;2023-02-13T00:48:49;307.77;;;35.53;;
17052;SDS011;8643;48.824;11.422;2023-02-13T00:51:18;346.27;;;36.50;;
17052;SDS011;8643;48.824;11.422;2023-02-13T00:53:46;167.17;;;31.43;;
17052;SDS011;8643;48.824;11.422;2023-02-13T00:56:15;156.37;;;31.63;;
17052;SDS011;8643;48.824;11.422;2023-02-13T00:58:47;170.00;;;31.67;;
17052;SDS011;8643;48.824;11.422;2023-02-13T01:01:17;234.67;;;32.93;;
17052;SDS011;8643;48.824;11.422;2023-02-13T01:03:45;131.67;;;29.73;;
17052;SDS011;8643;48.824;11.422;2023-02-13T01:06:14;273.33;;;34.13;;
17052;SDS011;8643;48.824;11.422;2023-02-13T01:08:42;202.93;;;32.23;;
17052;SDS011;8643;48.824;11.422;2023-02-13T01:11:11;154.40;;;30.60;;
17052;SDS011;8643;48.824;11.422;2023-02-13T01:13:42;128.17;;;29.73;;
17052;SDS011;8643;48.824;11.422;2023-02-13T01:16:11;128.87;;;29.07;;
17052;SDS011;8643;48.824;11.422;2023-02-13T01:18:42;125.53;;;29.83;;
17052;SDS011;8643;48.824;11.422;2023-02-13T01:21:14;97.33;;;27.37;;
17052;SDS011;8643;48.824;11.422;2023-02-13T01:23:45;104.63;;;27.40;;
17052;SDS011;8643;48.824;11.422;2023-02-13T01:26:16;100.27;;;28.03;;
17052;SDS011;8643;48.824;11.422;2023-02-13T01:28:50;101.60;;;27.93;;
17052;SDS011;8643;48.824;11.422;2023-02-13T01:31:20;117.60;;;27.47;;
17052;SDS011;8643;48.824;11.422;2023-02-13T01:33:51;154.13;;;31.57;;
17052;SDS011;8643;48.824;11.422;2023-02-13T01:36:22;269.10;;;31.07;;
17052;SDS011;8643;48.824;11.422;2023-02-13T01:38:53;124.17;;;28.77;;
17052;SDS011;8643;48.824;11.422;2023-02-13T01:41:23;100.63;;;26.87;;
17052;SDS011;8643;48.824;11.422;2023-02-13T01:43:55;104.23;;;27.60;;
17052;SDS011;8643;48.824;11.422;2023-02-13T01:46:28;190.40;;;30.63;;
17052;SDS011;8643;48.824;11.422;2023-02-13T01:49:08;96.27;;;25.03;;
17052;SDS011;8643;48.824;11.422;2023-02-13T01:51:44;113.93;;;27.00;;
17052;SDS011;8643;48.824;11.422;2023-02-13T01:54:14;135.30;;;28.67;;
17052;SDS011;8643;48.824;11.422;2023-02-13T01:56:47;118.07;;;28.50;;
17052;SDS011;8643;48.824;11.422;2023-02-13T01:59:22;90.43;;;26.87;;
17052;SDS011;8643;48.824;11.422;2023-02-13T02:01:56;187.10;;;30.07;;
17052;SDS011;8643;48.824;11.422;2023-02-13T02:04:28;195.13;;;29.80;;
17052;SDS011;8643;48.824;11.422;2023-02-13T02:07:05;106.87;;;27.47;;
17052;SDS011;8643;48.824;11.422;2023-02-13T02:09:41;97.23;;;26.40;;
17052;SDS011;8643;48.824;11.422;2023-02-13T02:12:13;97.60;;;27.27;;
17052;SDS011;8643;48.824;11.422;2023-02-13T02:14:53;165.27;;;26.83;;
17052;SDS011;8643;48.824;11.422;2023-02-13T02:17:30;100.57;;;25.13;;
17052;SDS011;8643;48.824;11.422;2023-02-13T02:20:03;118.23;;;26.50;;
17052;SDS011;8643;48.824;11.422;2023-02-13T02:26:27;90.07;;;24.60;;
17052;SDS011;8643;48.824;11.422;2023-02-13T02:33:01;137.73;;;25.03;;
17052;SDS011;8643;48.824;11.422;2023-02-13T02:36:01;131.57;;;25.43;;
17052;SDS011;8643;48.824;11.422;2023-02-13T02:38:53;167.93;;;26.20;;
17052;SDS011;8643;48.824;11.422;2023-02-13T02:41:38;153.60;;;23.87;;
17052;SDS011;8643;48.824;11.422;2023-02-13T02:44:31;237.97;;;27.07;;
17052;SDS011;8643;48.824;11.422;2023-02-13T02:47:08;118.77;;;23.50;;
17052;SDS011;8643;48.824;11.422;2023-02-13T02:50:13;90.20;;;21.40;;
17052;SDS011;8643;48.824;11.422;2023-02-13T02:53:03;125.03;;;21.67;;
17052;SDS011;8643;48.824;11.422;2023-02-13T02:55:49;105.27;;;21.23;;
17052;SDS011;8643;48.824;11.422;2023-02-13T02:58:27;140.23;;;23.23;;
17052;SDS011;8643;48.824;11.422;2023-02-13T03:01:25;94.40;;;19.87;;
17052;SDS011;8643;48.824;11.422;2023-02-13T03:04:17;61.43;;;19.97;;
17052;SDS011;8643;48.824;11.422;2023-02-13T03:07:11;64.10;;;19.23;;
17052;SDS011;8643;48.824;11.422;2023-02-13T03:09:44;163.23;;;22.67;;
17052;SDS011;8643;48.824;11.422;2023-02-13T03:12:37;125.60;;;20.57;;
17052;SDS011;8643;48.824;11.422;2023-02-13T03:15:30;56.23;;;18.33;;
17052;SDS011;8643;48.824;11.422;2023-02-13T03:18:21;90.87;;;19.67;;
17052;SDS011;8643;48.824;11.422;2023-02-13T03:21:09;106.33;;;20.43;;
17052;SDS011;8643;48.824;11.422;2023-02-13T03:24:06;70.10;;;18.20;;
17052;SDS011;8643;48.824;11.422;2023-02-13T03:26:45;135.00;;;21.60;;
17052;SDS011;8643;48.824;11.422;2023-02-13T03:29:27;97.27;;;18.40;;
17052;SDS011;8643;48.824;11.422;2023-02-13T03:32:29;91.77;;;18.27;;
17052;SDS011;8643;48.824;11.422;2023-02-13T03:35:19;104.17;;;18.73;;
17052;SDS011;8643;48.824;11.422;2023-02-13T03:38:19;68.37;;;16.93;;
17052;SDS011;8643;48.824;11.422;2023-02-13T03:40:59;103.23;;;16.93;;
17052;SDS011;8643;48.824;11.422;2023-02-13T03:43:49;86.47;;;17.60;;
17052;SDS011;8643;48.824;11.422;2023-02-13T03:46:31;86.67;;;17.40;;
17052;SDS011;8643;48.824;11.422;2023-02-13T03:49:04;90.60;;;18.03;;
17052;SDS011;8643;48.824;11.422;2023-02-13T03:51:58;94.30;;;17.80;;
17052;SDS011;8643;48.824;11.422;2023-02-13T03:54:34;51.40;;;17.13;;
17052;SDS011;8643;48.824;11.422;2023-02-13T03:57:30;71.17;;;17.67;;
17052;SDS011;8643;48.824;11.422;2023-02-13T04:00:20;156.03;;;18.90;;
17052;SDS011;8643;48.824;11.422;2023-02-13T04:02:55;81.40;;;18.63;;
17052;SDS011;8643;48.824;11.422;2023-02-13T04:05:42;57.53;;;16.20;;
17052;SDS011;8643;48.824;11.422;2023-02-13T04:08:16;78.37;;;17.27;;
17052;SDS011;8643;48.824;11.422;2023-02-13T04:10:47;100.57;;;17.60;;
17052;SDS011;8643;48.824;11.422;2023-02-13T04:13:24;48.53;;;15.87;;
17052;SDS011;8643;48.824;11.422;2023-02-13T04:16:01;132.13;;;18.07;;
17052;SDS011;8643;48.824;11.422;2023-02-13T04:18:37;60.77;;;17.27;;
17052;SDS011;8643;48.824;11.422;2023-02-13T04:21:07;53.43;;;17.43;;
17052;SDS011;8643;48.824;11.422;2023-02-13T04:23:36;189.53;;;21.40;;
17052;SDS011;8643;48.824;11.422;2023-02-13T04:26:05;91.57;;;18.63;;
17052;SDS011;8643;48.824;11.422;2023-02-13T04:28:46;71.20;;;17.37;;
17052;SDS011;8643;48.824;11.422;2023-02-13T04:31:15;231.33;;;22.93;;
17052;SDS011;8643;48.824;11.422;2023-02-13T04:33:44;238.87;;;21.50;;
17052;SDS011;8643;48.824;11.422;2023-02-13T04:36:12;73.13;;;17.20;;
17052;SDS011;8643;48.824;11.422;2023-02-13T04:38:41;198.60;;;21.03;;
17052;SDS011;8643;48.824;11.422;2023-02-13T04:41:10;54.07;;;17.20;;
17052;SDS011;8643;48.824;11.422;2023-02-13T04:43:40;57.73;;;16.17;;
17052;SDS011;8643;48.824;11.422;2023-02-13T04:46:10;60.73;;;17.17;;
17052;SDS011;8643;48.824;11.422;2023-02-13T04:48:38;51.70;;;16.83;;
17052;SDS011;8643;48.824;11.422;2023-02-13T04:51:07;137.13;;;19.70;;
17052;SDS011;8643;48.824;11.422;2023-02-13T04:53:35;130.60;;;20.77;;
17052;SDS011;8643;48.824;11.422;2023-02-13T04:56:04;153.80;;;20.53;;
17052;SDS011;8643;48.824;11.422;2023-02-13T04:58:32;95.57;;;19.93;;
17052;SDS011;8643;48.824;11.422;2023-02-13T05:01:01;60.37;;;19.03;;
17052;SDS011;8643;48.824;11.422;2023-02-13T05:03:35;67.67;;;19.07;;
17052;SDS011;8643;48.824;11.422;2023-02-13T05:06:03;66.40;;;17.67;;
17052;SDS011;8643;48.824;11.422;2023-02-13T05:08:32;51.80;;;18.03;;
17052;SDS011;8643;48.824;11.422;2023-02-13T05:11:01;121.47;;;18.83;;
17052;SDS011;8643;48.824;11.422;2023-02-13T05:13:30;56.23;;;17.73;;
17052;SDS011;8643;48.824;11.422;2023-02-13T05:15:58;84.33;;;19.67;;
17052;SDS011;8643;48.824;11.422;2023-02-13T05:18:27;77.93;;;18.60;;
17052;SDS011;8643;48.824;11.422;2023-02-13T05:20:57;63.60;;;18.33;;
17052;SDS011;8643;48.824;11.422;2023-02-13T05:23:43;103.23;;;19.60;;
17052;SDS011;8643;48.824;11.422;2023-02-13T05:26:12;108.57;;;18.70;;
17052;SDS011;8643;48.824;11.422;2023-02-13T05:28:40;72.33;;;18.70;;
17052;SDS011;8643;48.824;11.422;2023-02-13T05:31:26;46.53;;;17.33;;
17052;SDS011;8643;48.824;11.422;2023-02-13T05:33:55;98.47;;;18.87;;
17052;SDS011;8643;48.824;11.422;2023-02-13T05:36:25;56.03;;;17.50;;
17052;SDS011;8643;48.824;11.422;2023-02-13T05:38:53;60.17;;;18.37;;
17052;SDS011;8643;48.824;11.422;2023-02-13T05:41:21;112.10;;;18.97;;
17052;SDS011;8643;48.824;11.422;2023-02-13T05:43:50;55.27;;;16.23;;
17052;SDS011;8643;48.824;11.422;2023-02-13T05:46:18;48.17;;;16.57;;
17052;SDS011;8643;48.824;11.422;2023-02-13T05:48:47;109.17;;;18.80;;
17052;SDS011;8643;48.824;11.422;2023-02-13T05:51:16;105.17;;;18.10;;
17052;SDS011;8643;48.824;11.422;2023-02-13T05:53:46;57.63;;;17.27;;
17052;SDS011;8643;48.824;11.422;2023-02-13T05:56:14;116.70;;;18.57;;
17052;SDS011;8643;48.824;11.422;2023-02-13T05:58:43;80.37;;;18.60;;
17052;SDS011;8643;48.824;11.422;2023-02-13T06:01:11;57.50;;;16.33;;
17052;SDS011;8643;48.824;11.422;2023-02-13T06:03:40;56.53;;;16.27;;
17052;SDS011;8643;48.824;11.422;2023-02-13T06:06:08;76.03;;;16.50;;
17052;SDS011;8643;48.824;11.422;2023-02-13T06:08:37;87.17;;;17.47;;
17052;SDS011;8643;48.824;11.422;2023-02-13T06:11:07;71.73;;;16.60;;
17052;SDS011;8643;48.824;11.422;2023-02-13T06:13:36;98.13;;;17.83;;
17052;SDS011;8643;48.824;11.422;2023-02-13T06:16:06;58.03;;;16.77;;
17052;SDS011;8643;48.824;11.422;2023-02-13T06:18:34;56.53;;;17.00;;
17052;SDS011;8643;48.824;11.422;2023-02-13T06:21:04;59.33;;;18.67;;
17052;SDS011;8643;48.824;11.422;2023-02-13T06:23:34;54.43;;;16.33;;
17052;SDS011;8643;48.824;11.422;2023-02-13T06:26:02;116.93;;;19.00;;
17052;SDS011;8643;48.824;11.422;2023-02-13T06:28:33;81.33;;;18.00;;
17052;SDS011;8643;48.824;11.422;2023-02-13T06:31:02;72.17;;;17.07;;
17052;SDS011;8643;48.824;11.422;2023-02-13T06:33:31;73.00;;;17.73;;
17052;SDS011;8643;48.824;11.422;2023-02-13T06:36:00;61.83;;;17.43;;
17052;SDS011;8643;48.824;11.422;2023-02-13T06:38:29;47.23;;;16.90;;
17052;SDS011;8643;48.824;11.422;2023-02-13T06:40:58;61.57;;;16.57;;
17052;SDS011;8643;48.824;11.422;2023-02-13T06:43:28;57.57;;;16.27;;
17052;SDS011;8643;48.824;11.422;2023-02-13T06:45:58;46.30;;;15.47;;
17052;SDS011;8643;48.824;11.422;2023-02-13T06:48:30;57.33;;;14.90;;
17052;SDS011;8643;48.824;11.422;2023-02-13T06:50:59;47.70;;;15.70;;
17052;SDS011;8643;48.824;11.422;2023-02-13T06:53:28;53.13;;;16.07;;
17052;SDS011;8643;48.824;11.422;2023-02-13T06:55:57;52.93;;;15.33;;
17052;SDS011;8643;48.824;11.422;2023-02-13T06:58:25;86.50;;;15.33;;
17052;SDS011;8643;48.824;11.422;2023-02-13T07:00:54;44.37;;;13.20;;
17052;SDS011;8643;48.824;11.422;2023-02-13T07:03:24;48.27;;;14.33;;
17052;SDS011;8643;48.824;11.422;2023-02-13T07:05:53;46.90;;;14.07;;
17052;SDS011;8643;48.824;11.422;2023-02-13T07:08:21;72.70;;;15.40;;
17052;SDS011;8643;48.824;11.422;2023-02-13T07:10:50;67.17;;;15.30;;
17052;SDS011;8643;48.824;11.422;2023-02-13T07:13:19;49.27;;;13.70;;
17052;SDS011;8643;48.824;11.422;2023-02-13T07:15:47;48.60;;;12.93;;
17052;SDS011;8643;48.824;11.422;2023-02-13T07:18:16;95.20;;;14.53;;
17052;SDS011;8643;48.824;11.422;2023-02-13T07:20:46;68.50;;;15.77;;
17052;SDS011;8643;48.824;11.422;2023-02-13T07:23:14;68.23;;;13.87;;
17052;SDS011;8643;48.824;11.422;2023-02-13T07:25:42;90.70;;;15.17;;
17052;SDS011;8643;48.824;11.422;2023-02-13T07:28:11;90.43;;;15.43;;
17052;SDS011;8643;48.824;11.422;2023-02-13T07:30:39;45.60;;;14.73;;
17052;SDS011;8643;48.824;11.422;2023-02-13T07:33:08;111.43;;;16.93;;
17052;SDS011;8643;48.824;11.422;2023-02-13T07:35:38;92.53;;;17.27;;
17052;SDS011;8643;48.824;11.422;2023-02-13T07:38:14;50.47;;;15.93;;
17052;SDS011;8643;48.824;11.422;2023-02-13T07:40:43;68.30;;;15.57;;
17052;SDS011;8643;48.824;11.422;2023-02-13T07:43:12;96.57;;;17.03;;
17052;SDS011;8643;48.824;11.422;2023-02-13T07:45:40;161.27;;;18.17;;
17052;SDS011;8643;48.824;11.422;2023-02-13T07:48:09;71.47;;;17.23;;
17052;SDS011;8643;48.824;11.422;2023-02-13T07:50:37;55.40;;;16.07;;
17052;SDS011;8643;48.824;11.422;2023-02-13T07:53:11;74.40;;;15.87;;
17052;SDS011;8643;48.824;11.422;2023-02-13T07:55:39;88.37;;;15.73;;
17052;SDS011;8643;48.824;11.422;2023-02-13T07:58:08;68.40;;;15.60;;
17052;SDS011;8643;48.824;11.422;2023-02-13T08:00:37;90.87;;;15.97;;
17052;SDS011;8643;48.824;11.422;2023-02-13T08:03:05;60.37;;;15.90;;
17052;SDS011;8643;48.824;11.422;2023-02-13T08:05:33;49.77;;;14.87;;
17052;SDS011;8643;48.824;11.422;2023-02-13T08:08:02;59.33;;;14.57;;
17052;SDS011;8643;48.824;11.422;2023-02-13T08:10:33;69.70;;;14.30;;
17052;SDS011;8643;48.824;11.422;2023-02-13T08:13:18;37.77;;;13.43;;
17052;SDS011;8643;48.824;11.422;2023-02-13T08:15:47;72.67;;;16.00;;
17052;SDS011;8643;48.824;11.422;2023-02-13T08:18:15;57.07;;;14.60;;
17052;SDS011;8643;48.824;11.422;2023-02-13T08:20:45;41.33;;;14.53;;
17052;SDS011;8643;48.824;11.422;2023-02-13T08:23:13;66.93;;;15.23;;
17052;SDS011;8643;48.824;11.422;2023-02-13T08:25:43;74.73;;;14.50;;
17052;SDS011;8643;48.824;11.422;2023-02-13T08:28:13;55.80;;;13.97;;
17052;SDS011;8643;48.824;11.422;2023-02-13T08:30:42;40.90;;;13.17;;
17052;SDS011;8643;48.824;11.422;2023-02-13T08:33:10;80.27;;;16.03;;
17052;SDS011;8643;48.824;11.422;2023-02-13T08:35:39;39.67;;;14.23;;
17052;SDS011;8643;48.824;11.422;2023-02-13T08:38:08;56.40;;;14.27;;
17052;SDS011;8643;48.824;11.422;2023-02-13T08:40:36;54.87;;;14.13;;
17052;SDS011;8643;48.824;11.422;2023-02-13T08:43:06;63.73;;;14.67;;
17052;SDS011;8643;48.824;11.422;2023-02-13T08:45:34;83.10;;;16.47;;
17052;SDS011;8643;48.824;11.422;2023-02-13T08:48:03;82.10;;;16.40;;
17052;SDS011;8643;48.824;11.422;2023-02-13T08:50:32;174.17;;;18.87;;
17052;SDS011;8643;48.824;11.422;2023-02-13T08:53:02;61.43;;;15.30;;
17052;SDS011;8643;48.824;11.422;2023-02-13T08:55:31;60.20;;;15.73;;
17052;SDS011;8643;48.824;11.422;2023-02-13T08:58:00;52.67;;;15.00;;
17052;SDS011;8643;48.824;11.422;2023-02-13T09:00:31;57.53;;;16.40;;
17052;SDS011;8643;48.824;11.422;2023-02-13T09:03:00;42.47;;;14.93;;
17052;SDS011;8643;48.824;11.422;2023-02-13T09:05:29;42.73;;;15.23;;
17052;SDS011;8643;48.824;11.422;2023-02-13T09:07:59;83.90;;;17.13;;
17052;SDS011;8643;48.824;11.422;2023-02-13T09:10:29;63.47;;;16.57;;
17052;SDS011;8643;48.824;11.422;2023-02-13T09:12:59;57.47;;;15.97;;
17052;SDS011;8643;48.824;11.422;2023-02-13T09:15:27;60.20;;;15.90;;
17052;SDS011;8643;48.824;11.422;2023-02-13T09:17:58;95.50;;;16.23;;
17052;SDS011;8643;48.824;11.422;2023-02-13T09:20:26;92.57;;;16.73;;
17052;SDS011;8643;48.824;11.422;2023-02-13T09:22:55;97.37;;;17.10;;
17052;SDS011;8643;48.824;11.422;2023-02-13T09:25:24;53.20;;;14.87;;
17052;SDS011;8643;48.824;11.422;2023-02-13T09:27:52;65.20;;;14.23;;
17052;SDS011;8643;48.824;11.422;2023-02-13T09:30:20;83.50;;;15.40;;
17052;SDS011;8643;48.824;11.422;2023-02-13T09:32:49;50.13;;;15.83;;
17052;SDS011;8643;48.824;11.422;2023-02-13T09:35:21;84.33;;;16.63;;
17052;SDS011;8643;48.824;11.422;2023-02-13T09:37:50;62.37;;;15.60;;
17052;SDS011;8643;48.824;11.422;2023-02-13T09:40:23;51.83;;;15.23;;
17052;SDS011;8643;48.824;11.422;2023-02-13T09:43:04;123.80;;;18.13;;
17052;SDS011;8643;48.824;11.422;2023-02-13T09:45:40;50.83;;;16.50;;
17052;SDS011;8643;48.824;11.422;2023-02-13T09:48:14;64.73;;;17.67;;
17052;SDS011;8643;48.824;11.422;2023-02-13T09:50:55;49.10;;;16.70;;
17052;SDS011;8643;48.824;11.422;2023-02-13T09:53:25;98.20;;;19.73;;
17052;SDS011;8643;48.824;11.422;2023-02-13T09:56:00;82.73;;;19.60;;
17052;SDS011;8643;48.824;11.422;2023-02-13T09:58:41;60.67;;;18.73;;
17052;SDS011;8643;48.824;11.422;2023-02-13T10:01:19;75.90;;;19.23;;
17052;SDS011;8643;48.824;11.422;2023-02-13T10:07:03;70.07;;;19.50;;
17052;SDS011;8643;48.824;11.422;2023-02-13T10:09:48;136.43;;;19.97;;
17052;SDS011;8643;48.824;11.422;2023-02-13T10:12:30;72.00;;;19.90;;
17052;SDS011;8643;48.824;11.422;2023-02-13T10:15:20;60.43;;;20.00;;
17052;SDS011;8643;48.824;11.422;2023-02-13T10:17:58;95.50;;;20.53;;
17052;SDS011;8643;48.824;11.422;2023-02-13T10:20:33;99.90;;;21.83;;
17052;SDS011;8643;48.824;11.422;2023-02-13T10:23:15;125.63;;;21.73;;
17052;SDS011;8643;48.824;11.422;2023-02-13T10:25:52;88.03;;;20.07;;
17052;SDS011;8643;48.824;11.422;2023-02-13T10:28:32;49.10;;;19.10;;
17052;SDS011;8643;48.824;11.422;2023-02-13T10:31:09;59.23;;;20.70;;
17052;SDS011;8643;48.824;11.422;2023-02-13T10:33:45;57.87;;;21.63;;
17052;SDS011;8643;48.824;11.422;2023-02-13T10:36:17;81.90;;;21.70;;
17052;SDS011;8643;48.824;11.422;2023-02-13T10:38:55;73.63;;;21.23;;
17052;SDS011;8643;48.824;11.422;2023-02-13T10:41:32;54.60;;;19.70;;
17052;SDS011;8643;48.824;11.422;2023-02-13T10:44:19;92.43;;;22.50;;
17052;SDS011;8643;48.824;11.422;2023-02-13T10:47:12;71.67;;;20.17;;
17052;SDS011;8643;48.824;11.422;2023-02-13T10:50:05;101.57;;;22.73;;
17052;SDS011;8643;48.824;11.422;2023-02-13T10:52:51;59.93;;;20.77;;
17052;SDS011;8643;48.824;11.422;2023-02-13T10:58:49;74.87;;;26.00;;
17052;SDS011;8643;48.824;11.422;2023-02-13T11:01:36;57.50;;;22.07;;
17052;SDS011;8643;48.824;11.422;2023-02-13T11:04:14;49.37;;;20.77;;
17052;SDS011;8643;48.824;11.422;2023-02-13T11:06:50;55.30;;;21.03;;
17052;SDS011;8643;48.824;11.422;2023-02-13T11:09:24;69.37;;;25.07;;
17052;SDS011;8643;48.824;11.422;2023-02-13T11:11:58;61.97;;;22.40;;
17052;SDS011;8643;48.824;11.422;2023-02-13T11:14:53;56.77;;;21.43;;
17052;SDS011;8643;48.824;11.422;2023-02-13T11:17:25;63.93;;;21.40;;
17052;SDS011;8643;48.824;11.422;2023-02-13T11:19:57;53.57;;;21.70;;
17052;SDS011;8643;48.824;11.422;2023-02-13T11:22:32;63.53;;;23.27;;
17052;SDS011;8643;48.824;11.422;2023-02-13T11:25:05;66.53;;;23.30;;
17052;SDS011;8643;48.824;11.422;2023-02-13T11:27:46;68.20;;;25.00;;
17052;SDS011;8643;48.824;11.422;2023-02-13T11:30:29;62.73;;;23.70;;
17052;SDS011;8643;48.824;11.422;2023-02-13T11:33:01;59.40;;;23.07;;
17052;SDS011;8643;48.824;11.422;2023-02-13T11:35:33;56.87;;;23.33;;
17052;SDS011;8643;48.824;11.422;2023-02-13T11:38:10;59.03;;;23.50;;
17052;SDS011;8643;48.824;11.422;2023-02-13T11:40:48;59.37;;;23.47;;
17052;SDS011;8643;48.824;11.422;2023-02-13T11:43:25;58.37;;;22.23;;
17052;SDS011;8643;48.824;11.422;2023-02-13T11:46:00;58.43;;;22.87;;
17052;SDS011;8643;48.824;11.422;2023-02-13T11:48:31;55.87;;;22.13;;
17052;SDS011;8643;48.824;11.422;2023-02-13T11:51:01;60.00;;;22.73;;
17052;SDS011;8643;48.824;11.422;2023-02-13T11:53:31;59.43;;;23.17;;
17052;SDS011;8643;48.824;11.422;2023-02-13T11:56:07;63.93;;;22.80;;
17052;SDS011;8643;48.824;11.422;2023-02-13T11:58:39;59.73;;;23.23;;
17052;SDS011;8643;48.824;11.422;2023-02-13T12:01:22;62.73;;;23.87;;
17052;SDS011;8643;48.824;11.422;2023-02-13T12:04:01;59.80;;;23.40;;
17052;SDS011;8643;48.824;11.422;2023-02-13T12:06:36;60.80;;;22.03;;
17052;SDS011;8643;48.824;11.422;2023-02-13T12:09:11;69.53;;;24.03;;
17052;SDS011;8643;48.824;11.422;2023-02-13T12:11:43;64.73;;;23.83;;
17052;SDS011;8643;48.824;11.422;2023-02-13T12:14:18;57.60;;;23.47;;
17052;SDS011;8643;48.824;11.422;2023-02-13T12:16:49;53.17;;;21.93;;
17052;SDS011;8643;48.824;11.422;2023-02-13T12:19:28;65.03;;;25.57;;
17052;SDS011;8643;48.824;11.422;2023-02-13T12:22:10;57.87;;;23.43;;
17052;SDS011;8643;48.824;11.422;2023-02-13T12:25:07;59.03;;;21.97;;
17052;SDS011;8643;48.824;11.422;2023-02-13T12:28:04;58.20;;;22.27;;
17052;SDS011;8643;48.824;11.422;2023-02-13T12:30:44;57.33;;;21.87;;
17052;SDS011;8643;48.824;11.422;2023-02-13T12:33:41;49.90;;;21.67;;
17052;SDS011;8643;48.824;11.422;2023-02-13T12:36:52;49.47;;;19.73;;
17052;SDS011;8643;48.824;11.422;2023-02-13T12:39:35;49.20;;;20.30;;
17052;SDS011;8643;48.824;11.422;2023-02-13T12:42:19;51.47;;;21.67;;
17052;SDS011;8643;48.824;11.422;2023-02-13T12:45:09;48.57;;;20.03;;
17052;SDS011;8643;48.824;11.422;2023-02-13T12:50:56;49.20;;;20.40;;
17052;SDS011;8643;48.824;11.422;2023-02-13T12:53:47;46.73;;;20.97;;
17052;SDS011;8643;48.824;11.422;2023-02-13T12:56:39;46.43;;;19.87;;
17052;SDS011;8643;48.824;11.422;2023-02-13T12:59:30;45.00;;;19.10;;
17052;SDS011;8643;48.824;11.422;2023-02-13T13:05:25;46.13;;;19.30;;
17052;SDS011;8643;48.824;11.422;2023-02-13T13:08:25;48.70;;;21.17;;
17052;SDS011;8643;48.824;11.422;2023-02-13T13:11:16;44.73;;;20.03;;
17052;SDS011;8643;48.824;11.422;2023-02-13T13:14:01;45.27;;;19.43;;
17052;SDS011;8643;48.824;11.422;2023-02-13T13:16:42;46.70;;;19.80;;
17052;SDS011;8643;48.824;11.422;2023-02-13T13:19:23;46.40;;;19.77;;
17052;SDS011;8643;48.824;11.422;2023-02-13T13:22:10;44.97;;;19.57;;
17052;SDS011;8643;48.824;11.422;2023-02-13T13:24:48;47.07;;;20.30;;
17052;SDS011;8643;48.824;11.422;2023-02-13T13:27:31;50.03;;;20.93;;
17052;SDS011;8643;48.824;11.422;2023-02-13T13:30:12;45.10;;;20.07;;
17052;SDS011;8643;48.824;11.422;2023-02-13T13:32:49;50.53;;;21.77;;
17052;SDS011;8643;48.824;11.422;2023-02-13T13:35:24;53.40;;;22.40;;
17052;SDS011;8643;48.824;11.422;2023-02-13T13:37:57;50.67;;;22.27;;
17052;SDS011;8643;48.824;11.422;2023-02-13T13:40:37;45.57;;;20.30;;
17052;SDS011;8643;48.824;11.422;2023-02-13T13:43:18;47.53;;;20.03;;
17052;SDS011;8643;48.824;11.422;2023-02-13T13:45:58;49.90;;;21.77;;
17052;SDS011;8643;48.824;11.422;2023-02-13T13:48:50;49.90;;;21.43;;
17052;SDS011;8643;48.824;11.422;2023-02-13T13:51:32;53.40;;;22.23;;
17052;SDS011;8643;48.824;11.422;2023-02-13T13:54:20;55.60;;;22.67;;
17052;SDS011;8643;48.824;11.422;2023-02-13T13:57:04;55.10;;;22.13;;
17052;SDS011;8643;48.824;11.422;2023-02-13T13:59:57;47.30;;;20.40;;
17052;SDS011;8643;48.824;11.422;2023-02-13T14:06:02;50.00;;;20.77;;
17052;SDS011;8643;48.824;11.422;2023-02-13T14:08:55;62.00;;;24.40;;
17052;SDS011;8643;48.824;11.422;2023-02-13T14:11:38;51.30;;;22.00;;
17052;SDS011;8643;48.824;11.422;2023-02-13T14:20:29;51.27;;;22.50;;
17052;SDS011;8643;48.824;11.422;2023-02-13T14:29:21;51.30;;;21.63;;
17052;SDS011;8643;48.824;11.422;2023-02-13T14:32:00;48.20;;;21.00;;
17052;SDS011;8643;48.824;11.422;2023-02-13T14:34:35;47.60;;;21.13;;
17052;SDS011;8643;48.824;11.422;2023-02-13T14:37:11;51.30;;;21.27;;
17052;SDS011;8643;48.824;11.422;2023-02-13T14:46:25;51.00;;;22.03;;
17052;SDS011;8643;48.824;11.422;2023-02-13T14:49:04;49.83;;;20.53;;
17052;SDS011;8643;48.824;11.422;2023-02-13T14:51:40;49.17;;;21.20;;
17052;SDS011;8643;48.824;11.422;2023-02-13T14:54:18;49.37;;;20.70;;
17052;SDS011;8643;48.824;11.422;2023-02-13T14:57:08;51.03;;;21.10;;
17052;SDS011;8643;48.824;11.422;2023-02-13T14:59:47;51.47;;;21.13;;
17052;SDS011;8643;48.824;11.422;2023-02-13T15:02:20;56.57;;;22.20;;
17052;SDS011;8643;48.824;11.422;2023-02-13T15:04:52;56.40;;;22.83;;
17052;SDS011;8643;48.824;11.422;2023-02-13T15:07:27;58.80;;;23.93;;
17052;SDS011;8643;48.824;11.422;2023-02-13T15:10:03;59.30;;;23.20;;
17052;SDS011;8643;48.824;11.422;2023-02-13T15:12:55;53.23;;;21.57;;
17052;SDS011;8643;48.824;11.422;2023-02-13T15:15:28;56.70;;;22.63;;
17052;SDS011;8643;48.824;11.422;2023-02-13T15:18:03;54.50;;;22.17;;
17052;SDS011;8643;48.824;11.422;2023-02-13T15:20:38;57.43;;;23.37;;
17052;SDS011;8643;48.824;11.422;2023-02-13T15:23:14;57.90;;;23.93;;
17052;SDS011;8643;48.824;11.422;2023-02-13T15:25:54;58.40;;;23.00;;
17052;SDS011;8643;48.824;11.422;2023-02-13T15:28:26;56.10;;;23.37;;
17052;SDS011;8643;48.824;11.422;2023-02-13T15:30:58;53.37;;;22.70;;
17052;SDS011;8643;48.824;11.422;2023-02-13T15:33:31;54.27;;;21.80;;
17052;SDS011;8643;48.824;11.422;2023-02-13T15:36:15;52.80;;;20.93;;
17052;SDS011;8643;48.824;11.422;2023-02-13T15:38:46;53.90;;;21.87;;
17052;SDS011;8643;48.824;11.422;2023-02-13T15:41:16;50.63;;;21.37;;
17052;SDS011;8643;48.824;11.422;2023-02-13T15:43:50;52.17;;;21.07;;
17052;SDS011;8643;48.824;11.422;2023-02-13T15:46:25;50.50;;;21.87;;
17052;SDS011;8643;48.824;11.422;2023-02-13T15:48:57;55.17;;;21.90;;